createdAt,value
2023-01-07T00:00:27.954Z,16.60
2023-01-07T00:05:30.018Z,19.15
2023-01-07T00:10:32.454Z,15.00
2023-01-07T00:15:34.710Z,13.77
2023-01-07T00:20:36.921Z,13.10
2023-01-07T00:25:39.152Z,14.65
2023-01-07T00:30:45.331Z,15.52
2023-01-07T00:35:49.845Z,22.25
2023-01-07T00:40:52.064Z,24.92
2023-01-07T00:45:54.381Z,18.60
2023-01-07T00:50:56.826Z,18.30
2023-01-07T00:55:58.990Z,13.55
2023-01-07T01:01:02.258Z,13.20
2023-01-07T01:06:13.356Z,11.98
2023-01-07T01:11:16.741Z,11.57
2023-01-07T01:16:19.076Z,17.30
2023-01-07T01:21:21.166Z,13.95
2023-01-07T01:26:23.399Z,12.25
2023-01-07T01:31:25.979Z,10.18
2023-01-07T01:36:29.006Z,13.07
2023-01-07T01:41:34.511Z,10.68
2023-01-07T01:46:41.677Z,10.45
2023-01-07T01:51:56.160Z,9.95
2023-01-07T01:57:03.097Z,9.30
2023-01-07T02:02:07.200Z,12.25
2023-01-07T02:07:15.135Z,9.15
2023-01-07T02:12:36.779Z,8.27
2023-01-07T02:17:45.339Z,7.47
2023-01-07T02:23:06.980Z,10.00
2023-01-07T02:28:27.692Z,6.18
2023-01-07T02:33:38.962Z,6.65
2023-01-07T02:39:04.883Z,5.57
2023-01-07T02:44:21.247Z,6.13
2023-01-07T02:49:23.980Z,5.55
2023-01-07T02:54:29.658Z,8.48
2023-01-07T02:59:51.733Z,7.40
2023-01-07T03:05:17.993Z,5.97
2023-01-07T03:10:30.983Z,9.60
2023-01-07T03:15:49.250Z,12.68
2023-01-07T03:20:57.075Z,7.47
2023-01-07T03:26:05.433Z,8.27
2023-01-07T03:31:12.464Z,12.85
2023-01-07T03:36:18.567Z,8.35
2023-01-07T03:41:40.066Z,10.65
2023-01-07T03:46:43.504Z,8.25
2023-01-07T03:51:46.885Z,7.90
2023-01-07T03:56:49.626Z,11.00
2023-01-07T04:01:52.009Z,10.50
2023-01-07T04:06:54.841Z,9.57
2023-01-07T04:11:57.588Z,10.48
2023-01-07T04:17:00.662Z,7.95
2023-01-07T04:22:03.084Z,9.82
2023-01-07T04:27:07.277Z,12.35
2023-01-07T04:32:09.465Z,11.77
2023-01-07T04:37:11.766Z,9.05
2023-01-07T04:42:14.103Z,12.00
2023-01-07T04:47:16.911Z,13.07
2023-01-07T04:52:19.993Z,10.15
2023-01-07T04:57:22.302Z,14.65
2023-01-07T05:02:25.385Z,13.68
2023-01-07T05:07:28.802Z,16.10
2023-01-07T05:12:36.441Z,21.58
2023-01-07T05:17:41.039Z,13.65
2023-01-07T05:22:43.696Z,13.65
2023-01-07T05:27:46.074Z,13.82
2023-01-07T05:32:48.714Z,15.00
2023-01-07T05:37:51.810Z,16.65
2023-01-07T05:42:55.142Z,10.15
2023-01-07T05:47:57.383Z,10.50
2023-01-07T05:52:59.514Z,11.13
2023-01-07T05:58:01.773Z,13.00
2023-01-07T06:03:05.284Z,11.48
2023-01-07T06:08:10.311Z,11.43
2023-01-07T06:13:12.357Z,20.08
2023-01-07T06:18:14.501Z,14.80
2023-01-07T06:23:16.841Z,20.13
2023-01-07T06:28:19.326Z,20.48
2023-01-07T06:33:21.647Z,24.75
2023-01-07T06:38:23.746Z,17.75
2023-01-07T06:43:26.405Z,20.02
2023-01-07T06:48:28.732Z,38.13
2023-01-07T06:53:31.146Z,16.52
2023-01-07T06:58:33.237Z,15.35
2023-01-07T07:03:35.554Z,19.77
2023-01-07T07:08:37.799Z,23.10
2023-01-07T07:13:40.016Z,21.85
2023-01-07T07:18:42.200Z,28.80
2023-01-07T07:23:49.249Z,21.20
2023-01-07T07:28:51.401Z,27.10
2023-01-07T07:33:53.598Z,19.50
2023-01-07T07:38:56.029Z,45.72
2023-01-07T07:43:58.703Z,16.05
2023-01-07T07:49:01.880Z,23.83
2023-01-07T07:59:25.996Z,12.65
2023-01-07T08:04:34.324Z,14.05
2023-01-07T08:09:36.630Z,17.13
2023-01-07T08:14:38.994Z,11.63
2023-01-07T08:19:41.056Z,17.05
2023-01-07T08:24:43.129Z,24.48
2023-01-07T08:29:45.337Z,11.00
2023-01-07T08:34:47.782Z,10.93
2023-01-07T08:39:50.285Z,7.75
2023-01-07T08:44:52.513Z,5.38
2023-01-07T08:49:55.289Z,34.15
2023-01-07T08:54:57.805Z,6.60
2023-01-07T09:00:00.149Z,2.33
2023-01-07T09:05:02.292Z,7.22
2023-01-07T09:10:05.268Z,15.13
2023-01-07T09:15:08.158Z,9.32
2023-01-07T09:20:13.630Z,5.50
2023-01-07T09:25:16.232Z,3.97
2023-01-07T09:30:23.517Z,2.58
2023-01-07T09:35:25.789Z,3.15
2023-01-07T09:40:30.983Z,1.77
2023-01-07T09:45:57.459Z,1.73
2023-01-07T09:51:19.436Z,6.53
2023-01-07T09:56:36.654Z,2.47
2023-01-07T10:02:03.771Z,1.83
2023-01-07T10:07:09.213Z,5.80
2023-01-07T10:12:14.906Z,3.72
2023-01-07T10:17:37.304Z,5.03
2023-01-07T10:22:54.113Z,2.28
2023-01-07T10:28:03.431Z,8.45
2023-01-07T10:33:19.769Z,2.85
2023-01-07T10:38:22.113Z,6.93
2023-01-07T10:43:29.940Z,2.75
2023-01-07T10:48:35.067Z,5.88
2023-01-07T10:53:53.355Z,3.70
2023-01-07T10:58:55.823Z,6.22
2023-01-07T11:04:00.110Z,5.97
2023-01-07T11:09:07.443Z,2.30
2023-01-07T11:14:39.751Z,2.47
2023-01-07T11:19:49.356Z,3.80
2023-01-07T11:24:51.729Z,1.38
2023-01-07T11:30:41.593Z,3.38
2023-01-07T11:42:38.596Z,1.85
2023-01-07T11:47:48.807Z,0.95
2023-01-07T11:53:02.483Z,2.47
2023-01-07T11:58:29.415Z,2.13
2023-01-07T12:03:29.463Z,1.73
2023-01-07T12:08:32.121Z,2.10
2023-01-07T12:13:34.658Z,2.58
2023-01-07T12:18:55.846Z,2.80
2023-01-07T12:29:16.538Z,23.48
2023-01-07T12:34:32.538Z,9.10
2023-01-07T12:39:42.841Z,6.57
2023-01-07T12:44:55.068Z,2.60
2023-01-07T12:50:09.863Z,2.40
2023-01-07T12:55:25.871Z,1.83
2023-01-07T13:00:52.962Z,6.10
2023-01-07T13:06:11.441Z,2.70
2023-01-07T13:11:43.828Z,2.33
2023-01-07T13:16:46.250Z,4.30
2023-01-07T13:21:50.167Z,11.55
2023-01-07T13:27:09.764Z,17.25
2023-01-07T13:32:30.398Z,38.03
2023-01-07T13:37:44.837Z,9.98
2023-01-07T13:42:59.789Z,9.82
2023-01-07T13:48:07.336Z,6.50
2023-01-07T13:53:15.695Z,11.65
2023-01-07T13:58:56.077Z,7.00
2023-01-07T14:04:03.566Z,9.35
2023-01-07T14:09:08.552Z,13.25
2023-01-07T14:14:47.933Z,14.88
2023-01-07T14:20:02.328Z,17.08
2023-01-07T14:25:42.827Z,13.80
2023-01-07T14:30:53.556Z,17.55
2023-01-07T14:36:00.240Z,19.40
2023-01-07T14:41:13.512Z,21.63
2023-01-07T14:46:25.076Z,21.33
2023-01-07T14:52:00.508Z,20.25
2023-01-07T14:57:23.903Z,13.48
2023-01-07T15:03:03.999Z,34.00
2023-01-07T15:08:29.334Z,21.07
2023-01-07T15:13:55.403Z,12.70
2023-01-07T15:18:57.718Z,20.20
2023-01-07T15:24:33.467Z,53.53
2023-01-07T15:29:56.835Z,72.47
2023-01-07T15:34:59.212Z,60.38
2023-01-07T15:40:01.841Z,38.95
2023-01-07T15:45:04.963Z,34.40
2023-01-07T15:50:23.831Z,24.58
2023-01-07T15:55:33.121Z,36.95
2023-01-07T16:00:36.016Z,51.08
2023-01-07T16:05:38.685Z,51.10
2023-01-07T16:10:40.878Z,30.08
2023-01-07T16:15:43.012Z,49.47
2023-01-07T16:21:01.360Z,33.80
2023-01-07T16:26:25.199Z,25.38
2023-01-07T16:31:29.983Z,27.08
2023-01-07T16:36:38.474Z,27.38
2023-01-07T16:41:42.981Z,31.65
2023-01-07T16:47:06.697Z,31.23
2023-01-07T16:52:17.061Z,28.40
2023-01-07T16:57:48.909Z,32.03
2023-01-07T17:02:59.870Z,28.63
2023-01-07T17:08:08.510Z,38.45
2023-01-07T17:13:14.989Z,26.15
2023-01-07T17:18:17.630Z,19.95
2023-01-07T17:23:25.629Z,19.70
2023-01-07T17:28:30.668Z,26.95
2023-01-07T17:33:33.035Z,27.02
2023-01-07T17:38:35.274Z,24.45
2023-01-07T17:43:38.026Z,21.92
2023-01-07T17:48:40.139Z,30.58
2023-01-07T17:53:50.546Z,52.38
2023-01-07T17:58:55.747Z,56.77
2023-01-07T18:04:01.484Z,65.30
2023-01-07T18:09:05.159Z,50.92
2023-01-07T18:14:08.076Z,47.95
2023-01-07T18:19:14.793Z,22.27
2023-01-07T18:24:20.281Z,37.45
2023-01-07T18:29:22.526Z,47.38
2023-01-07T18:34:24.993Z,40.13
2023-01-07T18:39:27.207Z,37.67
2023-01-07T18:44:29.475Z,33.58
2023-01-07T18:49:31.717Z,44.55
2023-01-07T18:54:33.985Z,30.67
2023-01-07T18:59:36.503Z,30.23
2023-01-07T19:04:41.793Z,18.92
2023-01-07T19:09:44.832Z,22.10
2023-01-07T19:14:46.921Z,27.48
2023-01-07T19:19:49.244Z,30.92
2023-01-07T19:24:51.839Z,32.63
2023-01-07T19:29:54.137Z,29.70
2023-01-07T19:34:56.379Z,53.25
2023-01-07T19:39:58.453Z,23.00
2023-01-07T19:45:00.690Z,17.23
2023-01-07T19:50:23.220Z,25.20
2023-01-07T19:55:27.417Z,25.73
2023-01-07T20:00:29.515Z,30.30
2023-01-07T20:05:31.594Z,26.83
2023-01-07T20:10:34.099Z,32.15
2023-01-07T20:15:36.460Z,30.00
2023-01-07T20:20:38.603Z,25.08
2023-01-07T20:25:48.120Z,29.23
2023-01-07T20:30:50.378Z,33.65
2023-01-07T20:36:03.494Z,24.50
2023-01-07T20:41:14.357Z,25.95
2023-01-07T20:46:17.886Z,16.77
2023-01-07T20:51:20.724Z,19.80
2023-01-07T20:56:36.597Z,20.27
2023-01-07T21:01:39.260Z,17.50
2023-01-07T21:06:45.038Z,23.45
2023-01-07T21:11:50.106Z,18.13
2023-01-07T21:16:52.519Z,21.75
2023-01-07T21:21:54.973Z,40.95
2023-01-07T21:26:57.222Z,19.70
2023-01-07T21:32:01.115Z,16.48
2023-01-07T21:37:03.718Z,14.23
2023-01-07T21:42:06.650Z,16.63
2023-01-07T21:47:08.863Z,18.23
2023-01-07T21:52:11.123Z,21.20
2023-01-07T21:57:13.421Z,18.42
2023-01-07T22:02:17.995Z,19.00
2023-01-07T22:07:20.331Z,12.43
2023-01-07T22:12:23.682Z,17.60
2023-01-07T22:17:26.904Z,16.02
2023-01-07T22:22:36.633Z,16.08
2023-01-07T22:27:38.848Z,18.00
2023-01-07T22:32:41.151Z,24.95
2023-01-07T22:37:43.302Z,22.70
2023-01-07T22:42:55.839Z,17.77
2023-01-07T22:47:58.393Z,15.77
2023-01-07T22:53:00.543Z,15.05
2023-01-07T22:58:03.569Z,13.75
2023-01-07T23:03:06.001Z,16.23
2023-01-07T23:08:08.684Z,14.85
2023-01-07T23:13:11.190Z,14.73
2023-01-07T23:18:14.005Z,14.98
2023-01-07T23:23:16.362Z,12.23
2023-01-07T23:28:19.789Z,13.93
2023-01-07T23:33:22.045Z,17.95
2023-01-07T23:38:24.202Z,16.27
2023-01-07T23:43:27.411Z,11.52
2023-01-07T23:48:31.710Z,14.25
2023-01-07T23:53:34.426Z,15.52
2023-01-07T23:58:38.079Z,13.60
